Time;durP1;ratioP1;P1;durP2;ratioP2;P2;SDS_P1;SDS_P2;PMS_P1;PMS_P2;Temp;Humidity;BMP_temperature;BMP_pressure;BME280_temperature;BME280_humidity;BME280_pressure;Samples;Min_cycle;Max_cycle;Signal;HPM_P1;HPM_P2
2021/09/28 00:00:46;;;;;;;5.70;1.40;;;14.30;99.90;;;;;;5015451;28;20178;-79
2021/09/28 00:03:12;;;;;;;8.20;1.38;;;14.10;99.90;;;;;;5014958;28;20165;-84
2021/09/28 00:05:37;;;;;;;3.92;1.15;;;14.00;99.90;;;;;;5014460;28;20169;-83
2021/09/28 00:08:03;;;;;;;5.20;1.02;;;14.00;99.90;;;;;;5015061;28;20173;-83
2021/09/28 00:10:30;;;;;;;5.35;1.45;;;14.10;99.90;;;;;;5015244;28;20248;-80
2021/09/28 00:12:56;;;;;;;6.18;1.35;;;14.10;99.90;;;;;;5014914;28;20291;-83
2021/09/28 00:15:21;;;;;;;6.70;1.08;;;14.00;99.90;;;;;;5014482;28;20647;-83
2021/09/28 00:17:47;;;;;;;5.65;1.10;;;13.90;99.90;;;;;;5013570;28;20183;-80
2021/09/28 00:20:13;;;;;;;3.13;1.15;;;13.90;99.90;;;;;;5014686;28;20200;-83
2021/09/28 00:22:39;;;;;;;7.65;1.15;;;14.00;99.90;;;;;;5014707;28;20165;-82
2021/09/28 00:25:08;;;;;;;6.63;1.48;;;14.10;99.90;;;;;;5013687;28;20164;-83
2021/09/28 00:27:33;;;;;;;16.95;1.48;;;14.20;99.90;;;;;;5015174;28;20645;-82
2021/09/28 00:30:00;;;;;;;9.00;1.27;;;14.00;99.90;;;;;;5046621;28;20192;-82
2021/09/28 00:32:27;;;;;;;4.70;1.55;;;14.10;99.90;;;;;;5013006;28;20226;-84
2021/09/28 00:34:52;;;;;;;5.95;1.17;;;14.20;99.90;;;;;;5014494;28;20253;-82
2021/09/28 00:37:18;;;;;;;7.70;1.52;;;14.00;99.90;;;;;;5013255;28;20172;-81
2021/09/28 00:39:44;;;;;;;7.10;1.10;;;14.00;99.90;;;;;;5014172;28;20227;-81
2021/09/28 00:42:10;;;;;;;7.68;1.10;;;14.00;99.90;;;;;;5014229;28;20168;-80
2021/09/28 00:44:41;;;;;;;4.50;1.00;;;14.00;99.90;;;;;;5014326;28;20523;-82
2021/09/28 00:47:08;;;;;;;8.85;1.20;;;14.20;99.90;;;;;;5014133;28;20173;-81
2021/09/28 00:49:34;;;;;;;8.27;1.52;;;14.10;99.90;;;;;;5014777;28;20267;-84
2021/09/28 00:52:00;;;;;;;4.72;1.10;;;14.10;99.90;;;;;;5012759;28;20204;-83
2021/09/28 00:54:26;;;;;;;4.15;1.13;;;14.00;99.90;;;;;;5013172;28;20207;-81
2021/09/28 00:56:52;;;;;;;8.40;1.42;;;14.10;99.90;;;;;;5017172;28;20157;-80
2021/09/28 00:59:18;;;;;;;3.40;1.17;;;14.10;99.90;;;;;;5020922;28;20671;-79
2021/09/28 01:01:45;;;;;;;2.78;1.02;;;14.00;99.90;;;;;;5022687;28;20165;-80
2021/09/28 01:04:16;;;;;;;7.65;1.08;;;13.90;99.90;;;;;;5021857;28;20172;-79
2021/09/28 01:06:45;;;;;;;6.43;0.93;;;13.90;99.90;;;;;;5021742;28;20157;-79
2021/09/28 01:09:12;;;;;;;10.98;1.48;;;14.00;99.90;;;;;;5025341;28;20279;-79
2021/09/28 01:11:41;;;;;;;1.70;0.80;;;14.10;99.90;;;;;;5024240;28;20192;-79
2021/09/28 01:14:07;;;;;;;5.53;0.95;;;14.20;99.90;;;;;;5025015;28;20234;-79
2021/09/28 01:16:33;;;;;;;6.63;1.20;;;14.10;99.90;;;;;;5023240;28;20160;-80
2021/09/28 01:18:59;;;;;;;10.25;1.55;;;14.10;99.90;;;;;;5017327;28;20560;-79
2021/09/28 01:21:24;;;;;;;3.65;0.90;;;14.10;99.90;;;;;;5013796;28;20172;-79
2021/09/28 01:23:50;;;;;;;6.88;1.17;;;14.00;99.90;;;;;;5013529;28;20165;-80
2021/09/28 01:26:23;;;;;;;3.85;1.20;;;14.00;99.90;;;;;;5012386;28;20187;-79
2021/09/28 01:28:49;;;;;;;11.02;1.30;;;14.00;99.90;;;;;;5013080;28;20728;-79
2021/09/28 01:31:14;;;;;;;8.20;1.15;;;14.10;99.90;;;;;;5013308;28;20252;-79
2021/09/28 01:33:40;;;;;;;8.63;1.05;;;14.10;99.90;;;;;;5013276;28;20259;-79
2021/09/28 01:36:06;;;;;;;8.82;1.33;;;13.90;99.90;;;;;;5013357;28;20165;-79
2021/09/28 01:38:32;;;;;;;2.63;1.02;;;13.80;99.90;;;;;;5013376;28;20250;-79
2021/09/28 01:40:58;;;;;;;8.25;1.08;;;13.90;99.90;;;;;;5013277;28;20207;-80
2021/09/28 01:43:24;;;;;;;6.00;1.30;;;13.80;99.90;;;;;;5013071;28;20200;-80
2021/09/28 01:45:58;;;;;;;6.97;1.98;;;13.90;99.90;;;;;;5012619;28;20167;-80
2021/09/28 01:48:30;;;;;;;4.55;1.33;;;13.90;99.90;;;;;;5012357;28;20671;-80
2021/09/28 01:50:56;;;;;;;4.03;1.00;;;13.90;99.90;;;;;;5011778;28;20268;-80
2021/09/28 01:53:22;;;;;;;4.47;1.05;;;13.90;99.90;;;;;;5044683;28;20320;-80
2021/09/28 01:55:47;;;;;;;2.88;1.42;;;14.00;99.90;;;;;;5012562;28;20172;-81
2021/09/28 01:58:14;;;;;;;4.20;1.10;;;13.80;99.90;;;;;;5044223;28;20193;-80
2021/09/28 02:00:41;;;;;;;3.40;1.05;;;13.80;99.90;;;;;;5013075;28;20195;-81
2021/09/28 02:03:07;;;;;;;1.75;1.00;;;13.90;99.90;;;;;;5013025;28;20279;-80
2021/09/28 02:05:32;;;;;;;3.13;1.05;;;13.90;99.90;;;;;;5013881;28;20165;-80
2021/09/28 02:07:58;;;;;;;3.67;1.35;;;13.60;99.90;;;;;;5013419;28;20168;-81
2021/09/28 02:10:24;;;;;;;5.32;1.40;;;13.60;99.90;;;;;;5013391;28;20173;-81
2021/09/28 02:12:50;;;;;;;2.38;1.25;;;13.70;99.90;;;;;;5013385;28;20232;-84
2021/09/28 02:15:16;;;;;;;2.85;1.20;;;13.70;99.90;;;;;;5013407;28;20164;-83
2021/09/28 02:17:41;;;;;;;3.35;1.35;;;13.60;99.90;;;;;;5013887;28;20641;-81
2021/09/28 02:20:08;;;;;;;3.60;0.93;;;13.60;99.90;;;;;;5011521;28;20259;-80
2021/09/28 02:22:34;;;;;;;6.10;1.55;;;13.70;99.90;;;;;;5012749;28;20177;-81
2021/09/28 02:25:00;;;;;;;6.15;1.55;;;13.70;99.90;;;;;;5012735;28;20165;-82
2021/09/28 02:27:25;;;;;;;5.88;1.27;;;13.60;99.90;;;;;;5049160;28;20529;-80
2021/09/28 02:29:51;;;;;;;3.63;1.20;;;13.70;99.90;;;;;;5048908;28;20247;-79
2021/09/28 02:32:17;;;;;;;8.57;1.20;;;13.70;99.90;;;;;;5017475;28;20319;-80
2021/09/28 02:34:42;;;;;;;5.18;1.92;;;13.70;99.90;;;;;;5017333;28;20172;-80
2021/09/28 02:37:08;;;;;;;4.63;1.08;;;13.70;99.90;;;;;;5017329;28;20247;-81
2021/09/28 02:39:37;;;;;;;3.70;1.52;;;13.60;99.90;;;;;;5017895;28;20230;-86
2021/09/28 02:42:03;;;;;;;8.90;1.33;;;13.60;99.90;;;;;;5018115;28;20165;-82
2021/09/28 02:44:29;;;;;;;7.40;1.35;;;13.70;99.90;;;;;;5017826;28;20183;-80
2021/09/28 02:46:54;;;;;;;4.25;1.25;;;13.70;99.90;;;;;;5017993;28;20176;-83
2021/09/28 02:49:20;;;;;;;1.63;1.10;;;13.80;99.90;;;;;;5016874;28;20575;-81
2021/09/28 02:51:45;;;;;;;5.70;1.52;;;13.90;99.90;;;;;;5016884;28;20164;-82
2021/09/28 02:54:11;;;;;;;8.75;1.60;;;13.90;99.90;;;;;;5016874;28;20635;-85
2021/09/28 02:56:37;;;;;;;8.50;2.03;;;13.70;99.90;;;;;;5016877;28;20525;-84
2021/09/28 02:59:02;;;;;;;5.88;1.58;;;13.60;99.90;;;;;;5016819;28;20192;-84
2021/09/28 03:01:28;;;;;;;5.18;1.73;;;13.40;99.90;;;;;;5016951;28;20168;-83
2021/09/28 03:03:54;;;;;;;5.13;1.88;;;13.30;99.90;;;;;;5016578;28;20255;-83
2021/09/28 03:06:19;;;;;;;2.35;2.08;;;13.30;99.90;;;;;;5016267;28;20169;-81
2021/09/28 03:08:45;;;;;;;3.28;1.38;;;13.30;99.90;;;;;;5016330;28;20235;-81
2021/09/28 03:11:11;;;;;;;6.93;1.92;;;13.40;99.90;;;;;;5016177;28;20169;-80
2021/09/28 03:13:37;;;;;;;6.43;2.30;;;13.40;99.90;;;;;;5016711;28;20212;-81
2021/09/28 03:16:03;;;;;;;5.38;1.70;;;13.40;99.90;;;;;;5017676;28;20164;-81
2021/09/28 03:18:29;;;;;;;9.52;2.30;;;13.30;99.90;;;;;;5017198;28;20669;-81
2021/09/28 03:20:55;;;;;;;10.27;2.17;;;13.20;99.90;;;;;;5015564;28;20172;-80
2021/09/28 03:23:21;;;;;;;4.43;2.22;;;13.10;99.90;;;;;;5015698;28;20173;-80
2021/09/28 03:25:46;;;;;;;3.60;2.00;;;13.10;99.90;;;;;;5017213;28;20172;-84
2021/09/28 03:28:12;;;;;;;9.63;2.42;;;13.30;99.90;;;;;;5016483;28;20212;-80
2021/09/28 03:30:38;;;;;;;7.03;2.30;;;13.20;99.90;;;;;;5015901;28;20219;-80
2021/09/28 03:33:05;;;;;;;7.05;2.22;;;13.20;99.90;;;;;;5015429;28;20211;-81
2021/09/28 03:35:30;;;;;;;3.67;2.35;;;13.30;99.90;;;;;;5015655;28;20637;-81
2021/09/28 03:37:56;;;;;;;15.23;2.97;;;13.40;99.90;;;;;;5015142;28;20222;-81
2021/09/28 03:40:22;;;;;;;5.40;2.67;;;13.30;99.90;;;;;;5016161;28;20215;-82
2021/09/28 03:42:48;;;;;;;8.55;3.30;;;13.50;99.90;;;;;;5015981;28;20176;-80
2021/09/28 03:45:14;;;;;;;8.43;2.63;;;13.50;99.90;;;;;;5016161;28;20165;-81
2021/09/28 03:47:40;;;;;;;8.95;3.38;;;13.50;99.90;;;;;;5047733;28;20561;-81
2021/09/28 03:50:07;;;;;;;9.80;2.85;;;13.40;99.90;;;;;;5015554;28;20210;-81
2021/09/28 03:52:33;;;;;;;6.30;3.45;;;13.40;99.90;;;;;;5015492;28;20282;-80
2021/09/28 03:55:00;;;;;;;10.98;2.88;;;13.40;99.90;;;;;;5015528;28;20647;-82
2021/09/28 03:57:25;;;;;;;9.07;2.85;;;13.50;99.90;;;;;;5015427;28;20656;-82
2021/09/28 03:59:52;;;;;;;11.68;3.58;;;13.70;99.90;;;;;;5014309;28;20223;-81
2021/09/28 04:02:18;;;;;;;9.05;3.03;;;13.60;99.90;;;;;;5015525;28;20177;-80
2021/09/28 04:04:43;;;;;;;12.30;3.53;;;13.60;99.90;;;;;;5015241;28;20152;-81
2021/09/28 04:07:09;;;;;;;10.93;3.25;;;13.40;99.90;;;;;;5015356;28;20168;-80
2021/09/28 04:09:35;;;;;;;8.90;3.00;;;13.30;99.90;;;;;;5015534;28;20220;-81
2021/09/28 04:12:01;;;;;;;9.07;3.97;;;13.30;99.90;;;;;;5015155;28;20220;-80
2021/09/28 04:14:27;;;;;;;16.88;4.03;;;13.30;99.90;;;;;;5015795;28;20522;-80
2021/09/28 04:16:52;;;;;;;9.27;3.58;;;13.20;99.90;;;;;;5015305;28;20165;-81
2021/09/28 04:19:18;;;;;;;12.18;3.60;;;13.30;99.90;;;;;;5014803;28;20184;-80
2021/09/28 04:21:44;;;;;;;13.60;4.28;;;13.20;99.90;;;;;;5015266;28;20175;-80
2021/09/28 04:24:12;;;;;;;9.07;3.75;;;13.30;99.90;;;;;;5014040;28;20551;-81
2021/09/28 04:26:38;;;;;;;6.57;3.10;;;13.20;99.90;;;;;;5013973;28;20248;-81
2021/09/28 04:29:04;;;;;;;8.68;3.42;;;13.10;99.90;;;;;;5013671;28;20188;-80
2021/09/28 04:31:30;;;;;;;10.00;3.00;;;13.20;99.90;;;;;;5014820;28;20169;-80
2021/09/28 04:33:55;;;;;;;7.15;2.65;;;13.20;99.90;;;;;;5013497;28;20223;-80
2021/09/28 04:36:22;;;;;;;10.02;3.92;;;13.20;99.90;;;;;;5014456;28;20172;-80
2021/09/28 04:38:49;;;;;;;5.95;3.20;;;13.30;99.90;;;;;;5014309;28;20188;-81
2021/09/28 04:41:14;;;;;;;10.93;4.07;;;13.20;99.90;;;;;;5014080;28;20161;-80
2021/09/28 04:43:40;;;;;;;8.43;3.58;;;13.30;99.90;;;;;;5013486;28;20178;-80
2021/09/28 04:46:06;;;;;;;15.32;4.10;;;13.30;99.90;;;;;;5013851;28;20277;-80
2021/09/28 04:48:31;;;;;;;11.63;3.95;;;13.30;99.90;;;;;;5013002;28;20195;-80
2021/09/28 04:50:57;;;;;;;7.45;3.78;;;13.10;99.90;;;;;;5013835;28;20176;-87
2021/09/28 04:53:24;;;;;;;10.55;3.60;;;13.10;99.90;;;;;;5012474;28;20212;-84
2021/09/28 04:55:54;;;;;;;10.48;3.97;;;13.00;99.90;;;;;;5014049;28;20165;-81
2021/09/28 04:58:22;;;;;;;8.43;3.60;;;13.10;99.90;;;;;;5014197;28;20933;-86
2021/09/28 05:00:48;;;;;;;7.93;3.72;;;13.10;99.90;;;;;;5013886;28;20176;-84
2021/09/28 05:03:13;;;;;;;8.45;3.97;;;13.10;99.90;;;;;;5014530;28;20240;-83
2021/09/28 05:05:39;;;;;;;14.07;3.97;;;13.20;99.90;;;;;;5012751;28;20165;-86
2021/09/28 05:08:05;;;;;;;12.68;4.57;;;13.30;99.90;;;;;;5014892;28;20176;-81
2021/09/28 05:10:32;;;;;;;7.78;3.75;;;13.30;99.90;;;;;;5014581;28;20247;-80
2021/09/28 05:12:57;;;;;;;14.30;4.70;;;13.30;99.90;;;;;;5029757;28;20318;-83
2021/09/28 05:15:23;;;;;;;9.15;4.28;;;13.20;99.90;;;;;;5014694;28;20579;-81
2021/09/28 05:17:49;;;;;;;15.02;4.35;;;13.00;99.90;;;;;;5013910;28;20173;-82
2021/09/28 05:20:15;;;;;;;68.85;7.65;;;12.80;99.90;;;;;;5013763;28;20169;-79
2021/09/28 05:22:41;;;;;;;40.67;5.35;;;12.80;99.90;;;;;;5014109;28;20251;-84
2021/09/28 05:25:07;;;;;;;36.95;6.07;;;12.80;99.90;;;;;;5014898;28;20247;-86
2021/09/28 05:27:32;;;;;;;15.80;5.50;;;12.70;99.90;;;;;;5014380;28;20175;-84
2021/09/28 05:29:58;;;;;;;21.48;4.65;;;12.70;99.90;;;;;;5013747;28;20303;-80
2021/09/28 05:32:24;;;;;;;11.00;4.18;;;12.80;99.90;;;;;;5045414;28;20218;-80
2021/09/28 05:34:49;;;;;;;11.73;5.07;;;12.90;99.90;;;;;;5013204;28;20301;-80
2021/09/28 05:37:15;;;;;;;12.80;4.10;;;13.10;99.90;;;;;;5013801;28;20176;-81
2021/09/28 05:39:41;;;;;;;16.98;4.90;;;13.10;99.90;;;;;;5013743;28;20177;-79
2021/09/28 05:42:07;;;;;;;15.68;4.60;;;13.00;99.90;;;;;;5013131;28;20167;-79
2021/09/28 05:44:32;;;;;;;46.55;7.10;;;13.10;99.90;;;;;;5013016;28;20195;-80
2021/09/28 05:46:59;;;;;;;21.65;6.70;;;13.20;99.90;;;;;;5013393;28;20203;-80
2021/09/28 05:49:25;;;;;;;15.45;5.53;;;13.30;99.90;;;;;;5013130;28;20191;-79
2021/09/28 05:51:53;;;;;;;14.50;4.55;;;13.20;99.90;;;;;;5013088;28;20161;-78
2021/09/28 05:54:20;;;;;;;18.92;3.85;;;13.10;99.90;;;;;;5013078;28;20180;-80
2021/09/28 05:56:50;;;;;;;11.48;3.85;;;13.00;99.90;;;;;;5012849;28;20660;-79
2021/09/28 05:59:16;;;;;;;10.98;4.30;;;13.10;99.90;;;;;;5013606;28;20578;-84
2021/09/28 06:01:42;;;;;;;9.27;3.63;;;13.20;99.90;;;;;;5013115;28;20167;-80
2021/09/28 06:04:07;;;;;;;18.67;3.97;;;13.30;99.90;;;;;;5012822;28;20179;-81
2021/09/28 06:06:33;;;;;;;11.48;3.65;;;13.30;99.90;;;;;;5012684;28;20172;-79
2021/09/28 06:08:59;;;;;;;7.13;3.33;;;13.40;99.90;;;;;;5012940;28;20192;-78
2021/09/28 06:11:25;;;;;;;9.15;4.05;;;13.50;99.90;;;;;;5012805;28;20181;-79
2021/09/28 06:13:51;;;;;;;34.28;4.97;;;13.70;99.90;;;;;;5012499;28;20204;-79
2021/09/28 06:16:18;;;;;;;12.90;5.20;;;13.80;99.90;;;;;;5011336;28;20196;-79
2021/09/28 06:18:43;;;;;;;9.35;4.63;;;13.70;99.90;;;;;;5011554;28;20180;-80
2021/09/28 06:21:09;;;;;;;16.30;4.60;;;13.60;99.90;;;;;;5012185;28;20172;-80
2021/09/28 06:23:35;;;;;;;12.82;4.35;;;13.60;99.90;;;;;;5043755;28;20226;-81
2021/09/28 06:26:02;;;;;;;10.30;3.70;;;13.70;99.90;;;;;;5012062;28;20196;-80
2021/09/28 06:28:28;;;;;;;9.55;4.15;;;13.80;99.90;;;;;;5010959;28;20606;-80
2021/09/28 06:30:54;;;;;;;13.23;4.28;;;13.60;99.90;;;;;;5011965;28;20172;-80
2021/09/28 06:33:20;;;;;;;11.70;3.47;;;13.60;99.90;;;;;;5011732;28;20204;-80
2021/09/28 06:35:45;;;;;;;9.93;3.83;;;13.50;99.90;;;;;;5011728;28;20622;-80
2021/09/28 06:38:11;;;;;;;7.70;3.90;;;13.50;99.90;;;;;;5011786;28;20208;-80
2021/09/28 06:40:37;;;;;;;10.35;3.65;;;13.80;99.90;;;;;;5011869;28;20291;-79
2021/09/28 06:43:03;;;;;;;18.00;3.70;;;13.70;99.90;;;;;;5011863;28;20579;-80
2021/09/28 06:45:29;;;;;;;15.80;4.45;;;13.70;99.90;;;;;;5011091;28;20215;-88
2021/09/28 06:47:55;;;;;;;8.75;4.75;;;13.80;99.90;;;;;;5011087;28;20173;-82
2021/09/28 06:50:21;;;;;;;6.90;3.50;;;13.70;99.90;;;;;;5012788;28;20677;-85
2021/09/28 06:52:46;;;;;;;16.52;4.75;;;13.80;99.90;;;;;;5012693;28;20300;-83
2021/09/28 06:55:12;;;;;;;11.43;4.18;;;13.90;99.90;;;;;;5012395;28;20197;-83
2021/09/28 06:57:38;;;;;;;14.80;5.13;;;14.10;99.90;;;;;;5012113;28;20771;-79
2021/09/28 07:00:05;;;;;;;8.85;5.22;;;14.10;99.90;;;;;;5011999;28;20203;-84
2021/09/28 07:02:30;;;;;;;13.23;4.63;;;14.10;99.90;;;;;;5010272;28;20223;-79
2021/09/28 07:04:56;;;;;;;11.40;5.97;;;14.10;99.90;;;;;;5011840;28;20181;-79
2021/09/28 07:07:24;;;;;;;17.25;5.25;;;14.10;99.90;;;;;;5010567;28;20255;-79
2021/09/28 07:09:49;;;;;;;13.02;5.40;;;14.20;99.90;;;;;;5011989;28;20700;-79
2021/09/28 07:12:15;;;;;;;15.00;4.90;;;14.10;99.90;;;;;;5011800;28;20296;-78
2021/09/28 07:14:41;;;;;;;20.63;5.35;;;14.20;99.90;;;;;;5015434;28;20165;-78
2021/09/28 07:17:06;;;;;;;14.52;4.88;;;14.40;99.90;;;;;;5015907;28;20180;-82
2021/09/28 07:19:32;;;;;;;9.55;5.47;;;14.40;99.90;;;;;;5016429;28;20185;-80
2021/09/28 07:21:58;;;;;;;7.47;4.32;;;14.40;99.90;;;;;;5016611;28;20161;-87
2021/09/28 07:24:23;;;;;;;12.00;6.78;;;14.40;99.90;;;;;;5016055;28;20636;-81
2021/09/28 07:26:49;;;;;;;7.40;4.97;;;14.60;99.90;;;;;;5047081;28;20164;-79
2021/09/28 07:29:15;;;;;;;13.98;5.20;;;14.70;99.90;;;;;;5014972;28;20192;-80
2021/09/28 07:31:40;;;;;;;22.70;6.55;;;14.60;99.90;;;;;;5015186;28;20175;-79
2021/09/28 07:34:06;;;;;;;8.65;4.85;;;14.60;99.90;;;;;;5014669;28;20208;-80
2021/09/28 07:36:32;;;;;;;9.45;4.63;;;14.70;99.90;;;;;;5015291;28;20160;-78
2021/09/28 07:38:58;;;;;;;12.32;5.13;;;14.70;99.90;;;;;;5012913;28;20192;-78
2021/09/28 07:41:23;;;;;;;9.70;5.00;;;14.80;99.90;;;;;;5014771;28;20168;-80
2021/09/28 07:43:49;;;;;;;13.20;5.22;;;14.90;99.90;;;;;;5014912;28;20235;-81
2021/09/28 07:46:15;;;;;;;9.85;4.22;;;14.80;99.90;;;;;;5014543;28;20231;-81
2021/09/28 07:48:41;;;;;;;9.02;3.53;;;14.90;99.90;;;;;;5016185;28;20188;-79
2021/09/28 07:51:06;;;;;;;12.43;4.13;;;15.20;99.90;;;;;;5015954;28;20625;-81
2021/09/28 07:53:32;;;;;;;15.38;4.75;;;15.30;99.90;;;;;;5015750;28;20214;-80
2021/09/28 07:55:58;;;;;;;11.90;3.92;;;15.20;99.90;;;;;;5014763;28;20267;-79
2021/09/28 07:58:23;;;;;;;12.02;4.35;;;15.40;99.90;;;;;;5014530;28;20184;-78
2021/09/28 08:00:49;;;;;;;16.55;5.75;;;15.30;99.90;;;;;;5012093;28;20169;-77
2021/09/28 08:03:15;;;;;;;9.25;4.25;;;15.30;99.90;;;;;;5012504;28;20176;-79
2021/09/28 08:05:40;;;;;;;13.55;3.70;;;15.40;99.90;;;;;;5014193;28;20164;-77
2021/09/28 08:08:06;;;;;;;19.48;4.25;;;15.40;99.90;;;;;;5013984;28;20540;-78
2021/09/28 08:10:32;;;;;;;12.00;4.13;;;15.60;99.90;;;;;;5013030;28;20696;-78
2021/09/28 08:13:01;;;;;;;9.40;3.42;;;15.70;99.90;;;;;;5013857;28;20596;-79
2021/09/28 08:15:27;;;;;;;6.82;3.45;;;15.70;99.90;;;;;;5014507;28;20168;-78
2021/09/28 08:17:52;;;;;;;13.48;3.63;;;15.90;99.90;;;;;;5014492;28;20169;-78
2021/09/28 08:20:19;;;;;;;8.18;2.95;;;16.00;99.90;;;;;;5014451;28;20183;-82
2021/09/28 08:22:45;;;;;;;13.73;2.67;;;16.10;99.90;;;;;;5013736;28;20196;-85
2021/09/28 08:25:15;;;;;;;13.35;3.08;;;15.90;99.90;;;;;;5014820;28;20219;-82
2021/09/28 08:30:25;;;;;;;9.57;3.15;;;16.00;99.90;;;;;;5014052;28;20179;-85
2021/09/28 08:32:51;;;;;;;10.75;3.22;;;16.20;99.90;;;;;;5011306;28;20220;-82
2021/09/28 08:35:17;;;;;;;7.25;3.05;;;16.30;99.90;;;;;;5045053;28;20192;-85
2021/09/28 08:37:43;;;;;;;11.10;3.10;;;16.20;99.90;;;;;;5014020;28;20180;-84
2021/09/28 08:40:12;;;;;;;11.45;4.00;;;16.20;99.90;;;;;;5045999;28;20189;-82
2021/09/28 08:42:38;;;;;;;12.73;3.08;;;16.20;99.90;;;;;;5014066;28;20169;-85
2021/09/28 08:45:05;;;;;;;6.28;2.85;;;16.40;99.90;;;;;;5014023;28;20177;-86
2021/09/28 08:47:38;;;;;;;5.30;2.80;;;16.50;99.90;;;;;;5014135;28;20165;-84
2021/09/28 08:50:07;;;;;;;7.30;2.92;;;16.50;99.90;;;;;;5013248;28;20234;-84
2021/09/28 08:52:41;;;;;;;14.02;3.00;;;16.70;99.90;;;;;;5012806;28;20247;-84
2021/09/28 08:55:07;;;;;;;10.20;2.97;;;16.70;99.90;;;;;;5046021;28;20243;-87
2021/09/28 08:57:33;;;;;;;7.55;3.75;;;16.80;99.90;;;;;;5045592;28;20195;-84
2021/09/28 08:59:59;;;;;;;11.23;2.75;;;16.70;99.90;;;;;;5013678;28;20208;-81
2021/09/28 09:02:45;;;;;;;9.80;2.97;;;16.90;99.90;;;;;;5014773;28;20164;-80
2021/09/28 09:05:13;;;;;;;8.35;3.05;;;17.00;99.90;;;;;;5014467;28;20165;-83
2021/09/28 09:07:40;;;;;;;11.25;2.85;;;17.10;99.90;;;;;;5014520;28;20172;-87
2021/09/28 09:10:07;;;;;;;13.55;3.35;;;17.10;99.90;;;;;;5015906;28;20192;-80
2021/09/28 09:12:41;;;;;;;5.55;3.03;;;17.00;99.90;;;;;;5014558;28;20218;-84
2021/09/28 09:15:22;;;;;;;8.82;2.67;;;17.00;99.90;;;;;;5016344;28;20523;-82
2021/09/28 09:17:49;;;;;;;7.00;3.20;;;17.00;99.90;;;;;;5014867;28;20179;-88
2021/09/28 09:20:33;;;;;;;7.20;2.90;;;16.80;99.90;;;;;;5017998;28;20176;-79
2021/09/28 09:23:18;;;;;;;8.98;2.83;;;16.90;99.90;;;;;;5022709;28;20165;-80
2021/09/28 09:25:45;;;;;;;7.80;2.58;;;17.00;99.90;;;;;;5024774;28;20580;-85
2021/09/28 09:28:19;;;;;;;13.98;2.88;;;17.20;99.90;;;;;;5024921;28;20215;-81
2021/09/28 09:30:45;;;;;;;9.20;3.10;;;17.10;99.90;;;;;;5023287;28;20168;-81
2021/09/28 09:33:11;;;;;;;10.48;2.45;;;17.20;99.90;;;;;;5023842;28;20273;-80
2021/09/28 09:35:36;;;;;;;4.50;1.75;;;17.20;99.90;;;;;;5026301;28;20169;-80
2021/09/28 09:38:15;;;;;;;10.80;2.03;;;17.30;99.90;;;;;;5034309;28;20169;-79
2021/09/28 09:40:46;;;;;;;8.43;2.08;;;17.40;99.90;;;;;;5028468;28;20182;-80
2021/09/28 09:43:14;;;;;;;5.38;1.90;;;17.70;99.90;;;;;;5026408;28;20168;-82
2021/09/28 09:45:40;;;;;;;12.38;1.80;;;17.80;99.90;;;;;;5031983;28;20161;-82
2021/09/28 09:48:27;;;;;;;17.48;1.85;;;17.80;99.90;;;;;;5027442;28;20180;-85
2021/09/28 09:51:05;;;;;;;5.97;1.60;;;18.00;99.90;;;;;;5032888;28;20252;-81
2021/09/28 09:53:31;;;;;;;5.63;1.40;;;18.00;99.90;;;;;;5032468;28;20297;-81
2021/09/28 09:55:58;;;;;;;5.75;1.45;;;18.10;99.90;;;;;;5032738;28;20171;-81
2021/09/28 09:58:25;;;;;;;8.30;1.73;;;18.20;99.90;;;;;;5038937;28;20188;-82
2021/09/28 10:00:53;;;;;;;4.38;1.60;;;18.40;99.90;;;;;;5030175;28;20263;-82
2021/09/28 10:03:20;;;;;;;5.20;1.60;;;18.40;99.90;;;;;;5021630;28;20246;-83
2021/09/28 10:05:45;;;;;;;4.03;1.63;;;18.30;99.90;;;;;;5011288;28;20586;-82
2021/09/28 10:08:13;;;;;;;4.70;2.15;;;18.30;99.90;;;;;;5013398;28;20207;-82
2021/09/28 10:10:43;;;;;;;10.48;1.60;;;18.40;99.90;;;;;;5012062;28;20168;-83
2021/09/28 10:13:45;;;;;;;9.43;1.88;;;18.30;99.90;;;;;;5011685;28;20208;-82
2021/09/28 10:16:31;;;;;;;7.80;2.00;;;18.50;99.90;;;;;;5021216;28;20600;-85
2021/09/28 10:18:57;;;;;;;5.50;2.35;;;18.40;99.90;;;;;;5030889;28;20191;-84
2021/09/28 10:21:40;;;;;;;8.48;2.42;;;18.40;99.90;;;;;;5030303;28;20168;-82
2021/09/28 10:24:18;;;;;;;6.30;1.77;;;18.50;99.90;;;;;;5029277;28;20195;-83
2021/09/28 10:27:06;;;;;;;9.50;1.90;;;18.40;99.90;;;;;;5032391;28;20200;-82
2021/09/28 10:29:42;;;;;;;5.45;1.60;;;18.60;99.90;;;;;;5030420;28;20226;-84
2021/09/28 10:32:34;;;;;;;9.40;1.65;;;18.60;99.90;;;;;;5032210;28;20183;-82
2021/09/28 10:35:06;;;;;;;4.03;1.38;;;18.50;99.90;;;;;;5031117;28;20668;-83
2021/09/28 10:37:48;;;;;;;9.00;0.90;;;18.50;99.90;;;;;;5031881;28;20605;-84
2021/09/28 10:40:14;;;;;;;6.82;1.33;;;18.80;99.90;;;;;;5030719;28;20659;-82
2021/09/28 10:42:56;;;;;;;12.25;1.60;;;18.80;99.90;;;;;;5031163;28;20179;-83
2021/09/28 10:45:44;;;;;;;11.65;1.35;;;18.80;99.90;;;;;;5031998;28;20164;-84
2021/09/28 10:48:34;;;;;;;1.85;0.85;;;19.10;99.90;;;;;;5035349;28;20160;-82
2021/09/28 10:51:09;;;;;;;2.65;1.00;;;19.10;99.90;;;;;;5035784;28;20167;-83
2021/09/28 10:53:38;;;;;;;4.13;0.80;;;19.20;99.90;;;;;;5035736;28;20203;-85
2021/09/28 10:56:15;;;;;;;5.13;1.40;;;19.40;99.90;;;;;;5034578;28;20624;-84
2021/09/28 10:58:57;;;;;;;3.90;0.82;;;19.40;99.90;;;;;;5035648;28;20210;-83
2021/09/28 11:01:28;;;;;;;2.63;1.10;;;19.30;99.90;;;;;;5035416;28;20210;-82
2021/09/28 11:04:01;;;;;;;2.38;0.70;;;19.40;99.90;;;;;;5035539;28;20171;-83
2021/09/28 11:06:42;;;;;;;3.78;1.13;;;19.60;99.90;;;;;;5035924;28;20172;-85
2021/09/28 11:09:08;;;;;;;5.93;1.90;;;19.50;99.90;;;;;;5034415;28;20188;-81
2021/09/28 11:11:34;;;;;;;6.50;1.05;;;19.70;99.90;;;;;;5035572;28;20187;-81
2021/09/28 11:14:02;;;;;;;8.60;1.42;;;19.40;99.90;;;;;;5035171;28;20203;-83
2021/09/28 11:16:28;;;;;;;3.85;1.23;;;19.40;99.90;;;;;;5035535;28;20163;-82
2021/09/28 11:18:58;;;;;;;3.58;0.95;;;19.40;99.90;;;;;;5035146;28;20709;-85
2021/09/28 11:21:25;;;;;;;3.05;0.90;;;19.40;99.90;;;;;;5035846;28;20635;-83
2021/09/28 11:23:53;;;;;;;5.40;1.25;;;19.50;99.90;;;;;;5033801;28;20632;-83
2021/09/28 11:26:28;;;;;;;4.28;1.13;;;19.60;99.90;;;;;;5035394;28;20182;-83
2021/09/28 11:28:55;;;;;;;6.75;1.00;;;19.80;99.90;;;;;;5034046;28;20293;-81
2021/09/28 11:31:30;;;;;;;3.78;0.80;;;19.80;99.90;;;;;;5034077;28;20172;-82
2021/09/28 11:33:57;;;;;;;1.13;0.57;;;19.90;99.90;;;;;;5034965;28;20300;-82
2021/09/28 11:36:23;;;;;;;6.32;1.13;;;20.00;99.90;;;;;;5033791;28;20164;-83
2021/09/28 11:38:50;;;;;;;2.22;0.73;;;20.10;99.90;;;;;;5035228;28;20717;-83
2021/09/28 11:41:21;;;;;;;5.25;1.40;;;20.10;99.90;;;;;;5035059;28;20160;-84
2021/09/28 11:43:53;;;;;;;10.00;1.30;;;20.00;99.90;;;;;;5033717;28;20548;-84
2021/09/28 11:46:21;;;;;;;4.88;0.77;;;19.90;99.90;;;;;;5033510;28;20178;-84
2021/09/28 11:48:58;;;;;;;8.13;1.05;;;19.90;99.90;;;;;;5033221;28;20561;-82
2021/09/28 11:51:29;;;;;;;3.58;1.25;;;19.80;99.90;;;;;;5035031;28;20192;-83
2021/09/28 11:54:07;;;;;;;10.48;1.10;;;19.60;99.90;;;;;;5034792;28;20214;-83
2021/09/28 11:56:36;;;;;;;6.15;1.15;;;19.50;99.90;;;;;;5034290;28;20239;-83
2021/09/28 11:59:02;;;;;;;9.00;1.70;;;19.50;99.90;;;;;;5034059;28;20278;-82
2021/09/28 12:01:28;;;;;;;2.50;0.73;;;19.60;99.90;;;;;;5035090;28;20227;-81
2021/09/28 12:09:51;;;;;;;12.57;0.77;;;19.60;99.90;;;;;;5020820;28;20191;-81
2021/09/28 12:12:28;;;;;;;6.47;1.15;;;19.50;99.90;;;;;;5034474;28;20178;-80
2021/09/28 12:14:57;;;;;;;17.02;1.63;;;19.50;99.90;;;;;;5034415;28;20199;-85
2021/09/28 12:17:39;;;;;;;9.63;1.55;;;19.50;99.90;;;;;;5034372;28;20204;-81
2021/09/28 12:20:11;;;;;;;7.50;0.98;;;19.50;99.90;;;;;;5033949;28;20198;-83
2021/09/28 12:22:46;;;;;;;2.95;1.55;;;19.50;99.90;;;;;;5034215;28;20172;-85
2021/09/28 12:25:20;;;;;;;2.63;1.23;;;19.60;99.90;;;;;;5034254;28;20191;-82
2021/09/28 12:27:51;;;;;;;5.18;1.15;;;19.60;99.90;;;;;;5034276;28;20178;-85
2021/09/28 12:30:18;;;;;;;4.50;1.05;;;19.50;99.90;;;;;;5034268;28;20644;-81
2021/09/28 12:32:48;;;;;;;9.10;1.52;;;19.50;99.90;;;;;;5033925;28;20251;-84
2021/09/28 12:35:14;;;;;;;9.43;1.42;;;19.50;99.90;;;;;;5034126;28;20179;-83
2021/09/28 12:37:49;;;;;;;4.68;1.02;;;19.40;99.90;;;;;;5034023;28;20592;-84
2021/09/28 12:40:17;;;;;;;2.92;1.05;;;19.20;99.90;;;;;;5034269;28;20680;-82
2021/09/28 12:42:43;;;;;;;2.95;0.90;;;19.20;99.90;;;;;;5033208;28;20499;-82
2021/09/28 12:45:14;;;;;;;2.15;1.10;;;19.30;99.90;;;;;;5034173;28;20532;-83
2021/09/28 12:47:56;;;;;;;6.18;1.00;;;19.40;99.90;;;;;;5033991;28;20192;-83
2021/09/28 12:50:29;;;;;;;2.67;1.10;;;19.40;99.90;;;;;;5033689;28;20182;-84
2021/09/28 12:53:02;;;;;;;5.72;0.90;;;19.50;99.90;;;;;;5033213;28;20223;-85
2021/09/28 12:55:29;;;;;;;2.72;0.90;;;19.50;99.90;;;;;;5033817;28;20159;-82